Time;durP1;ratioP1;P1;durP2;ratioP2;P2;SDS_P1;SDS_P2;PMS_P1;PMS_P2;Temp;Humidity;BMP_temperature;BMP_pressure;BME280_temperature;BME280_humidity;BME280_pressure;Samples;Min_cycle;Max_cycle;Signal;HPM_P1;HPM_P2
2021/12/08 00:00:20;;;;;;;23.05;15.98;;;;;;;15.74;62.41;100257.52;1713498;83;21049;-71
2021/12/08 00:02:47;;;;;;;21.02;15.95;;;;;;;15.73;62.39;100261.05;1707274;82;21006;-71
2021/12/08 00:05:15;;;;;;;24.05;16.25;;;;;;;15.69;62.34;100262.13;1718484;82;22758;-71
2021/12/08 00:07:42;;;;;;;22.60;16.82;;;;;;;15.65;62.46;100267.14;1708449;83;21029;-71
2021/12/08 00:13:04;;;;;;;23.25;16.32;;;;;;;15.66;62.44;100266.20;1709323;82;21525;-71
2021/12/08 00:15:40;;;;;;;20.37;15.88;;;;;;;15.63;62.60;100269.00;1712946;83;21478;-71
2021/12/08 00:18:12;;;;;;;23.00;17.45;;;;;;;15.65;62.65;100259.28;1714506;83;21010;-72
2021/12/08 00:20:41;;;;;;;24.40;17.60;;;;;;;15.63;62.69;100261.13;1710178;82;20988;-71
2021/12/08 00:23:07;;;;;;;26.07;18.73;;;;;;;15.60;62.74;100249.47;1716713;82;21058;-72
2021/12/08 00:25:34;;;;;;;27.62;18.92;;;;;;;15.60;62.71;100244.71;1717696;82;21086;-71
2021/12/08 00:28:01;;;;;;;22.17;18.27;;;;;;;15.57;62.70;100235.22;1702304;82;21014;-71
2021/12/08 00:30:29;;;;;;;31.52;20.88;;;;;;;15.54;62.80;100232.73;1708491;82;21058;-71
2021/12/08 00:32:57;;;;;;;23.20;19.50;;;;;;;15.51;62.87;100230.28;1713090;83;21031;-72
2021/12/08 00:35:24;;;;;;;25.40;19.55;;;;;;;15.48;62.94;100222.55;1711746;82;21003;-71
2021/12/08 00:37:51;;;;;;;25.97;19.95;;;;;;;15.44;63.02;100228.88;1715010;83;21562;-71
2021/12/08 00:40:18;;;;;;;24.27;19.37;;;;;;;15.41;63.15;100237.70;1712259;83;21086;-71
2021/12/08 00:42:46;;;;;;;26.00;20.60;;;;;;;15.37;63.27;100236.64;1718176;82;21098;-72
2021/12/08 00:45:13;;;;;;;27.58;20.55;;;;;;;15.34;63.43;100239.41;1719196;82;21086;-71
2021/12/08 00:47:39;;;;;;;27.75;21.50;;;;;;;15.35;63.55;100233.25;1716263;82;21086;-71
2021/12/08 00:50:08;;;;;;;27.22;20.92;;;;;;;15.37;63.49;100232.71;1711295;83;21047;-72
2021/12/08 00:52:35;;;;;;;25.60;20.43;;;;;;;15.39;63.47;100233.48;1709214;83;21585;-71
2021/12/08 00:55:03;;;;;;;25.17;21.30;;;;;;;15.38;63.49;100234.39;1715874;82;21002;-71
2021/12/08 00:57:30;;;;;;;27.25;20.40;;;;;;;15.39;63.48;100243.97;1717644;82;20983;-71
2021/12/08 00:59:56;;;;;;;25.77;20.60;;;;;;;15.42;63.41;100238.56;1713934;83;21101;-71
2021/12/08 01:02:23;;;;;;;31.95;21.17;;;;;;;15.45;63.35;100235.83;1719817;82;21015;-72
2021/12/08 01:04:49;;;;;;;27.02;22.05;;;;;;;15.48;63.31;100238.77;1714606;82;21133;-72
2021/12/08 01:07:16;;;;;;;27.95;20.80;;;;;;;15.51;63.17;100240.77;1715235;83;21083;-71
2021/12/08 01:09:42;;;;;;;32.17;21.82;;;;;;;15.54;63.02;100228.80;1717296;82;21036;-71
2021/12/08 01:12:11;;;;;;;30.85;21.10;;;;;;;15.54;62.83;100228.80;1716986;82;21498;-70
2021/12/08 01:14:38;;;;;;;26.77;20.65;;;;;;;15.53;62.84;100223.19;1713659;83;21035;-72
2021/12/08 01:17:06;;;;;;;21.65;18.62;;;;;;;15.52;62.85;100225.41;1717835;82;21085;-70
2021/12/08 01:19:33;;;;;;;30.45;20.68;;;;;;;15.50;62.79;100228.56;1713500;83;21106;-71
2021/12/08 01:21:59;;;;;;;25.02;19.92;;;;;;;15.46;62.89;100225.26;1720439;82;20983;-71
2021/12/08 01:24:26;;;;;;;26.05;20.05;;;;;;;15.45;62.86;100221.41;1716702;82;20999;-71
2021/12/08 01:26:54;;;;;;;28.35;20.45;;;;;;;15.43;62.95;100223.27;1720236;82;21035;-71
2021/12/08 01:29:21;;;;;;;27.48;19.17;;;;;;;15.42;63.03;100225.45;1713489;82;21051;-71
2021/12/08 01:31:47;;;;;;;25.30;20.12;;;;;;;15.40;63.01;100219.44;1710336;83;21043;-71
2021/12/08 01:34:13;;;;;;;25.77;20.20;;;;;;;15.38;63.06;100222.59;1714261;83;21033;-71
2021/12/08 01:36:41;;;;;;;26.82;19.73;;;;;;;15.35;63.16;100216.21;1714040;83;21039;-71
2021/12/08 01:39:08;;;;;;;25.35;19.85;;;;;;;15.37;63.14;100211.25;1710024;82;21478;-72
2021/12/08 01:41:34;;;;;;;28.07;19.98;;;;;;;15.36;63.06;100214.81;1714662;82;21030;-71
2021/12/08 01:46:46;;;;;;;25.30;19.45;;;;;;;15.31;63.06;100218.59;1708730;82;21054;-70
2021/12/08 01:49:13;;;;;;;26.70;19.75;;;;;;;15.28;63.18;100212.18;1716301;82;21050;-71
2021/12/08 01:51:39;;;;;;;25.30;18.87;;;;;;;15.25;63.29;100211.04;1717530;82;21026;-72
2021/12/08 01:54:06;;;;;;;26.48;18.07;;;;;;;15.22;63.38;100210.72;1713227;82;20999;-70
2021/12/08 01:56:35;;;;;;;26.68;19.62;;;;;;;15.21;63.31;100202.45;1713208;82;21008;-71
2021/12/08 01:59:03;;;;;;;25.27;18.73;;;;;;;15.20;63.37;100195.98;1713037;83;20987;-70
2021/12/08 02:01:31;;;;;;;23.20;19.17;;;;;;;15.19;63.39;100195.12;1714298;82;21928;-71
2021/12/08 02:04:03;;;;;;;22.93;18.12;;;;;;;15.20;63.39;100192.06;1716047;82;21484;-70
2021/12/08 02:06:26;;;;;;;20.82;17.15;;;;;;;15.18;63.46;100189.52;1710085;83;21074;-71
2021/12/08 02:08:53;;;;;;;21.57;16.75;;;;;;;15.18;63.47;100186.90;1712163;82;21510;-70
2021/12/08 02:11:23;;;;;;;19.40;16.12;;;;;;;15.17;63.51;100186.95;1712907;83;21491;-70
2021/12/08 02:13:52;;;;;;;20.32;15.58;;;;;;;15.16;63.38;100182.65;1712947;83;20959;-71
2021/12/08 02:16:17;;;;;;;18.57;14.85;;;;;;;15.14;63.49;100181.88;1711151;83;21038;-71
2021/12/08 02:18:48;;;;;;;20.30;15.72;;;;;;;15.13;63.52;100188.89;1717089;82;21003;-71
2021/12/08 02:21:31;;;;;;;19.40;15.03;;;;;;;15.13;63.60;100185.41;1720695;82;21110;-71
2021/12/08 02:24:03;;;;;;;20.62;14.03;;;;;;;15.15;63.50;100182.25;1697950;83;21523;-71
2021/12/08 02:26:30;;;;;;;19.25;15.13;;;;;;;15.15;63.34;100178.32;1724036;82;21101;-71
2021/12/08 02:28:58;;;;;;;20.65;14.65;;;;;;;15.13;63.36;100173.61;1711834;83;21014;-71
2021/12/08 02:31:36;;;;;;;18.95;14.50;;;;;;;15.10;63.33;100173.78;1712319;82;21064;-71
2021/12/08 02:50:11;;;;;;;22.27;13.47;;;;;;;15.10;63.20;100153.67;1670941;85;21063;-72
2021/12/08 02:52:38;;;;;;;16.70;12.80;;;;;;;15.10;63.22;100160.68;1663816;85;21628;-73
2021/12/08 02:55:07;;;;;;;19.17;13.15;;;;;;;15.11;63.28;100154.50;1672617;85;21039;-71
2021/12/08 02:57:33;;;;;;;17.65;12.30;;;;;;;15.11;63.18;100160.59;1673485;85;21566;-72
2021/12/08 03:00:00;;;;;;;21.50;13.88;;;;;;;15.09;63.16;100149.34;1672439;86;21520;-71
2021/12/08 03:02:27;;;;;;;15.95;12.33;;;;;;;15.07;63.07;100151.64;1664543;85;21035;-71
2021/12/08 03:04:53;;;;;;;18.50;12.53;;;;;;;15.07;63.21;100152.95;1658765;86;21015;-72
2021/12/08 03:07:20;;;;;;;17.17;12.03;;;;;;;15.07;63.18;100164.30;1664116;85;21043;-72
2021/12/08 03:09:46;;;;;;;18.40;11.40;;;;;;;15.08;63.10;100162.53;1672672;86;21086;-71
2021/12/08 03:12:14;;;;;;;13.88;10.45;;;;;;;15.08;63.11;100165.16;1668339;85;20996;-71
2021/12/08 03:14:40;;;;;;;11.78;10.53;;;;;;;15.07;62.94;100168.68;1669144;85;21003;-71
2021/12/08 03:17:09;;;;;;;14.73;10.45;;;;;;;15.04;62.99;100172.77;1665953;85;21019;-72
2021/12/08 03:19:36;;;;;;;13.93;11.38;;;;;;;15.03;62.96;100167.98;1662095;85;21079;-71
2021/12/08 03:22:09;;;;;;;11.50;9.73;;;;;;;15.00;62.95;100165.50;1666262;86;21043;-72
2021/12/08 03:24:35;;;;;;;14.05;11.03;;;;;;;15.01;62.94;100171.60;1663370;85;21051;-72
2021/12/08 03:32:24;;;;;;;13.32;10.53;;;;;;;15.03;63.06;100177.61;1636843;88;21415;-71
2021/12/08 03:34:51;;;;;;;13.18;10.18;;;;;;;15.07;62.90;100177.84;1659667;85;21100;-72
2021/12/08 03:37:29;;;;;;;13.68;10.25;;;;;;;15.07;62.85;100172.61;1681749;84;21122;-72
2021/12/08 03:39:57;;;;;;;15.93;10.23;;;;;;;15.11;62.71;100178.09;1699194;84;21467;-72
2021/12/08 03:42:25;;;;;;;13.58;9.80;;;;;;;15.09;62.59;100175.55;1680488;84;21097;-72
2021/12/08 03:44:54;;;;;;;18.75;11.75;;;;;;;15.07;62.70;100174.77;1682210;84;21079;-72
2021/12/08 03:47:26;;;;;;;12.40;10.23;;;;;;;15.09;62.65;100169.45;1676275;85;21032;-71
2021/12/08 03:49:48;;;;;;;13.78;9.80;;;;;;;15.06;62.58;100171.78;1695279;84;20991;-72
2021/12/08 03:52:15;;;;;;;10.63;9.53;;;;;;;15.05;62.55;100173.14;1678694;84;21046;-72
2021/12/08 03:54:41;;;;;;;11.55;9.50;;;;;;;15.03;62.55;100177.61;1680228;85;21046;-72
2021/12/08 03:57:08;;;;;;;12.13;10.30;;;;;;;15.02;62.48;100177.24;1680074;85;21087;-73
2021/12/08 03:59:35;;;;;;;12.50;10.18;;;;;;;14.98;62.53;100183.07;1672338;85;21058;-72
2021/12/08 04:02:02;;;;;;;13.65;10.60;;;;;;;14.95;62.58;100180.62;1676238;84;21014;-72
2021/12/08 04:04:30;;;;;;;16.77;10.60;;;;;;;14.92;62.73;100177.31;1694066;84;21023;-73
2021/12/08 04:07:02;;;;;;;15.68;10.20;;;;;;;14.91;62.72;100175.59;1699719;84;21052;-72
2021/12/08 04:09:30;;;;;;;15.32;9.55;;;;;;;14.89;62.76;100180.06;1682273;84;21086;-72
2021/12/08 04:11:54;;;;;;;13.00;9.95;;;;;;;14.89;62.79;100186.16;1678188;85;21690;-72
2021/12/08 04:14:25;;;;;;;14.60;10.23;;;;;;;14.89;62.66;100190.54;1677374;85;21097;-72
2021/12/08 04:16:57;;;;;;;13.90;11.03;;;;;;;14.92;62.74;100191.23;1672318;85;21030;-72
2021/12/08 04:19:23;;;;;;;;;;;;;;;14.97;62.67;100191.02;1684769;84;21027;-73
2021/12/08 04:21:51;;;;;;;15.83;9.70;;;;;;;14.99;62.53;100187.86;1684687;84;20146;-72
2021/12/08 04:24:17;;;;;;;14.95;10.28;;;;;;;14.98;62.41;100187.48;1691858;84;21586;-73
2021/12/08 04:26:50;;;;;;;14.85;10.85;;;;;;;14.94;62.39;100196.42;1671488;85;21569;-72
2021/12/08 04:29:20;;;;;;;16.93;10.98;;;;;;;14.93;62.52;100193.40;1721145;82;21648;-73
2021/12/08 04:31:47;;;;;;;12.63;9.43;;;;;;;14.91;62.35;100203.10;1709096;83;21490;-73
2021/12/08 04:34:19;;;;;;;13.08;10.18;;;;;;;14.88;62.39;100196.72;1717978;82;22032;-73
2021/12/08 04:36:48;;;;;;;10.80;9.20;;;;;;;14.85;62.51;100199.47;1719517;82;20991;-72
2021/12/08 04:39:23;;;;;;;16.77;9.90;;;;;;;14.85;62.57;100198.16;1716249;82;21006;-72
2021/12/08 04:41:54;;;;;;;13.13;9.75;;;;;;;14.84;62.57;100195.17;1710129;83;21070;-73
2021/12/08 05:00:30;;;;;;;11.90;9.80;;;;;;;14.76;62.57;100211.22;1606100;87;21087;-71
2021/12/08 05:07:53;;;;;;;12.05;9.68;;;;;;;14.73;62.76;100213.15;1558695;91;21077;-73
2021/12/08 05:10:29;;;;;;;17.02;10.68;;;;;;;14.74;62.88;100213.52;1584451;88;21066;-72
2021/12/08 05:12:57;;;;;;;13.95;9.80;;;;;;;14.76;62.78;100216.46;1556514;91;21132;-71
2021/12/08 05:15:33;;;;;;;15.40;11.35;;;;;;;14.76;62.73;100205.12;1583488;89;21078;-71
2021/12/08 05:18:12;;;;;;;13.75;10.05;;;;;;;14.79;62.76;100206.31;1582553;90;21138;-72
2021/12/08 05:20:47;;;;;;;14.85;9.90;;;;;;;14.80;62.57;100193.13;1514635;93;21119;-72
2021/12/08 05:23:27;;;;;;;18.15;11.28;;;;;;;14.83;62.43;100198.70;1515196;94;21087;-72
2021/12/08 05:25:53;;;;;;;14.00;9.68;;;;;;;14.81;62.41;100197.91;1517898;94;21094;-72
2021/12/08 05:28:22;;;;;;;14.33;9.58;;;;;;;14.78;62.37;100208.07;1515323;92;21091;-72
2021/12/08 05:30:57;;;;;;;16.75;10.25;;;;;;;14.74;62.40;100209.14;1562473;92;21035;-72
2021/12/08 05:33:24;;;;;;;12.40;9.25;;;;;;;14.73;62.46;100214.45;1493720;95;21643;-72
2021/12/08 05:35:51;;;;;;;17.37;10.05;;;;;;;14.74;62.53;100214.83;1483891;95;21611;-72
2021/12/08 05:38:18;;;;;;;11.53;10.35;;;;;;;14.77;62.38;100206.84;1495611;95;21602;-74
2021/12/08 05:40:56;;;;;;;15.43;10.40;;;;;;;14.79;62.21;100214.17;1498748;95;21111;-72
2021/12/08 05:43:22;;;;;;;11.90;9.45;;;;;;;14.79;62.12;100222.02;1541710;91;21683;-73
2021/12/08 05:45:49;;;;;;;14.65;10.68;;;;;;;14.79;62.02;100225.95;1570154;91;21035;-71
2021/12/08 05:48:16;;;;;;;14.45;9.78;;;;;;;14.77;62.04;100225.17;1562248;90;21058;-72
2021/12/08 05:50:48;;;;;;;11.25;9.40;;;;;;;14.76;62.04;100228.70;1570664;90;21080;-73
2021/12/08 05:53:14;;;;;;;14.00;10.00;;;;;;;14.73;62.05;100226.24;1577483;90;21091;-72
2021/12/08 05:55:41;;;;;;;13.78;10.15;;;;;;;14.71;62.13;100222.84;1573884;90;21094;-72
2021/12/08 05:58:08;;;;;;;12.63;9.65;;;;;;;14.69;62.25;100225.06;1552595;91;21267;-73
2021/12/08 06:00:52;;;;;;;10.13;8.65;;;;;;;14.71;62.12;100222.84;1555555;90;21026;-72
2021/12/08 06:03:19;;;;;;;14.63;9.60;;;;;;;14.70;62.22;100229.84;1549611;91;21057;-72
2021/12/08 06:05:47;;;;;;;14.13;9.03;;;;;;;14.68;62.18;100228.62;1575653;90;21098;-73
2021/12/08 06:08:14;;;;;;;16.73;10.10;;;;;;;14.69;62.23;100234.23;1571500;91;21121;-73
2021/12/08 06:10:40;;;;;;;15.45;10.03;;;;;;;14.69;62.16;100228.16;1571977;91;21553;-73
2021/12/08 06:13:08;;;;;;;12.45;9.50;;;;;;;14.67;62.16;100230.83;1567239;91;21573;-73
2021/12/08 06:15:36;;;;;;;12.55;9.70;;;;;;;14.63;62.16;100229.28;1555120;91;21145;-73
2021/12/08 06:18:03;;;;;;;13.55;9.55;;;;;;;14.62;62.16;100230.22;1627635;85;20995;-73
2021/12/08 06:20:29;;;;;;;12.53;8.83;;;;;;;14.59;62.34;100235.58;1649420;86;21048;-73
2021/12/08 06:22:57;;;;;;;10.98;9.15;;;;;;;14.60;62.44;100235.98;1646179;85;21135;-73
2021/12/08 06:25:24;;;;;;;12.40;8.95;;;;;;;14.63;62.40;100241.06;1643680;86;21543;-72
2021/12/08 06:27:50;;;;;;;13.22;8.70;;;;;;;14.66;62.43;100240.94;1648340;86;21054;-72
2021/12/08 06:30:22;;;;;;;11.48;9.08;;;;;;;14.71;62.32;100247.73;1680655;83;21080;-73
2021/12/08 06:32:49;;;;;;;11.90;7.65;;;;;;;14.72;62.25;100242.41;1671768;85;21023;-73
2021/12/08 06:35:21;;;;;;;10.53;8.73;;;;;;;14.70;62.13;100249.48;1712149;82;21045;-72
2021/12/08 06:37:47;;;;;;;10.25;8.28;;;;;;;14.67;62.29;100246.55;1718466;83;21043;-73
2021/12/08 06:40:19;;;;;;;11.80;7.65;;;;;;;14.67;62.22;100245.23;1710537;83;21553;-73
2021/12/08 06:42:48;;;;;;;13.80;8.78;;;;;;;14.63;62.30;100256.77;1716704;82;21609;-72
2021/12/08 06:45:19;;;;;;;11.00;8.65;;;;;;;14.57;62.40;100246.58;1708543;83;21061;-72
2021/12/08 06:47:46;;;;;;;15.00;8.93;;;;;;;14.55;62.64;100258.90;1712939;82;21537;-72
2021/12/08 06:50:21;;;;;;;13.98;8.33;;;;;;;14.56;62.62;100254.06;1713919;82;21033;-72
2021/12/08 06:52:47;;;;;;;10.28;7.53;;;;;;;14.57;62.76;100251.81;1696898;83;21062;-72
2021/12/08 06:55:25;;;;;;;11.75;7.97;;;;;;;14.58;62.81;100253.53;1698277;83;21055;-72
2021/12/08 06:58:03;;;;;;;8.80;7.80;;;;;;;14.60;62.74;100250.84;1641549;84;21033;-72
2021/12/08 07:00:53;;;;;;;10.48;7.25;;;;;;;14.59;62.81;100251.29;1644306;86;21111;-72
2021/12/08 07:06:08;;;;;;;10.28;7.03;;;;;;;14.67;62.66;100250.95;1590429;88;21667;-73
2021/12/08 07:08:37;;;;;;;9.75;7.35;;;;;;;14.69;62.48;100249.94;1598673;88;21080;-72
2021/12/08 07:11:04;;;;;;;11.95;8.00;;;;;;;14.72;62.36;100249.41;1600146;88;21032;-72
2021/12/08 07:13:31;;;;;;;12.82;7.53;;;;;;;14.72;62.26;100248.09;1604285;88;21009;-72
2021/12/08 07:16:03;;;;;;;10.72;7.17;;;;;;;14.69;62.30;100248.62;1601252;88;21574;-73
2021/12/08 07:18:39;;;;;;;10.03;6.90;;;;;;;14.67;62.36;100246.55;1576551;89;21057;-73
2021/12/08 07:21:03;;;;;;;7.72;6.40;;;;;;;14.64;62.39;100241.47;1547740;91;21117;-73
2021/12/08 07:23:41;;;;;;;7.58;5.87;;;;;;;14.63;62.45;100238.44;1522479;91;21162;-72
2021/12/08 07:26:12;;;;;;;14.05;9.75;;;;;;;14.61;62.32;100234.22;1523845;91;21077;-73
2021/12/08 07:28:40;;;;;;;11.05;8.73;;;;;;;14.58;62.47;100240.89;1531893;92;21117;-73
2021/12/08 07:31:17;;;;;;;11.25;8.75;;;;;;;14.56;62.58;100246.21;1530542;91;21106;-73
2021/12/08 07:33:44;;;;;;;13.03;9.23;;;;;;;14.55;62.68;100243.19;1530143;92;21127;-72
2021/12/08 07:36:15;;;;;;;9.48;7.35;;;;;;;14.60;62.60;100246.91;1532047;91;21108;-73
2021/12/08 07:38:43;;;;;;;10.80;9.63;;;;;;;14.65;62.45;100249.69;1563847;89;21099;-72
2021/12/08 07:41:21;;;;;;;10.68;9.55;;;;;;;14.66;62.49;100246.63;1563925;89;21077;-72
2021/12/08 07:43:51;;;;;;;14.78;10.35;;;;;;;14.67;62.31;100245.23;1529963;91;21559;-72
2021/12/08 07:46:24;;;;;;;12.47;9.33;;;;;;;14.65;62.22;100241.84;1543499;92;21718;-73
2021/12/08 07:48:57;;;;;;;13.43;8.95;;;;;;;14.61;62.31;100239.46;1427915;98;21107;-73
2021/12/08 07:51:38;;;;;;;10.58;7.25;;;;;;;14.60;62.46;100239.91;1433596;98;21140;-72
2021/12/08 07:54:06;;;;;;;9.98;6.62;;;;;;;14.61;62.45;100240.28;1430971;98;21132;-72
2021/12/08 07:56:34;;;;;;;10.68;7.60;;;;;;;14.61;62.48;100237.66;1433604;98;21077;-72
2021/12/08 07:59:03;;;;;;;9.33;6.87;;;;;;;14.63;62.48;100240.23;1448928;98;21116;-72
2021/12/08 08:01:36;;;;;;;9.23;6.95;;;;;;;14.65;62.45;100238.40;1485505;95;21081;-72
2021/12/08 08:04:06;;;;;;;9.30;6.97;;;;;;;14.67;62.32;100238.69;1446759;99;21112;-73
2021/12/08 08:06:36;;;;;;;8.48;6.08;;;;;;;14.63;62.32;100242.38;1447854;99;21123;-72
2021/12/08 08:09:06;;;;;;;9.30;6.80;;;;;;;14.62;62.31;100240.69;1441484;99;21186;-73
2021/12/08 08:11:39;;;;;;;8.55;6.10;;;;;;;14.62;62.37;100246.38;1444327;98;21104;-73
2021/12/08 08:14:05;;;;;;;8.35;6.10;;;;;;;14.62;62.38;100243.31;1448089;99;21581;-71
2021/12/08 08:16:33;;;;;;;8.65;6.10;;;;;;;14.63;62.38;100241.55;1438874;99;21599;-72
2021/12/08 08:19:07;;;;;;;9.75;6.42;;;;;;;14.62;62.47;100243.31;1444933;97;21069;-71
2021/12/08 08:21:34;;;;;;;7.28;5.87;;;;;;;14.66;62.42;100238.31;1444181;98;21093;-71
2021/12/08 08:24:01;;;;;;;7.65;5.80;;;;;;;14.67;62.43;100238.69;1450088;98;21105;-71
2021/12/08 08:26:28;;;;;;;7.12;5.90;;;;;;;14.69;62.39;100239.95;1428190;99;21580;-72
2021/12/08 08:28:54;;;;;;;7.10;5.28;;;;;;;14.68;62.33;100236.47;1453084;97;21561;-71
2021/12/08 08:31:26;;;;;;;7.20;4.90;;;;;;;14.66;62.38;100239.63;1440068;98;21569;-72
2021/12/08 08:33:53;;;;;;;6.75;5.15;;;;;;;14.63;62.43;100233.69;1461432;97;21134;-73
2021/12/08 08:36:26;;;;;;;8.88;5.92;;;;;;;14.62;62.56;100230.67;1426939;99;21140;-72
2021/12/08 08:38:58;;;;;;;8.63;5.67;;;;;;;14.63;62.55;100226.66;1443124;98;21101;-72
2021/12/08 08:41:31;;;;;;;6.97;5.70;;;;;;;14.63;62.39;100224.04;1434203;99;21111;-71
2021/12/08 08:43:59;;;;;;;7.80;5.90;;;;;;;14.63;62.42;100220.59;1418976;100;21169;-72
2021/12/08 08:46:33;;;;;;;8.05;5.62;;;;;;;14.61;62.48;100218.03;1480975;95;21097;-71
2021/12/08 08:49:04;;;;;;;8.28;5.22;;;;;;;14.59;62.52;100212.02;1480061;96;21636;-72
2021/12/08 08:51:45;;;;;;;6.53;4.90;;;;;;;14.60;62.58;100208.94;1479080;94;21101;-71
2021/12/08 08:54:20;;;;;;;6.90;5.28;;;;;;;14.62;62.49;100211.89;1550408;90;21158;-71
2021/12/08 08:56:55;;;;;;;9.15;5.87;;;;;;;14.62;62.47;100210.58;1580257;89;21061;-71
2021/12/08 08:59:33;;;;;;;8.68;5.75;;;;;;;14.63;62.43;100212.26;1579309;89;21627;-70
2021/12/08 09:02:07;;;;;;;8.70;5.78;;;;;;;14.67;62.36;100204.64;1502239;94;21589;-70
2021/12/08 09:04:35;;;;;;;6.95;5.30;;;;;;;14.69;62.12;100208.04;1507306;95;21751;-71
2021/12/08 09:07:08;;;;;;;7.55;5.70;;;;;;;14.65;62.01;100205.66;1500581;94;22416;-71
2021/12/08 09:09:39;;;;;;;6.50;4.87;;;;;;;14.58;62.08;100207.71;1505265;95;21134;-71
2021/12/08 09:12:16;;;;;;;6.33;4.58;;;;;;;14.53;62.06;100200.97;1550212;92;21564;-71
2021/12/08 09:14:49;;;;;;;6.37;4.30;;;;;;;14.48;62.14;100200.36;1542232;92;21117;-71
2021/12/08 09:17:34;;;;;;;7.45;4.90;;;;;;;14.42;62.20;100201.50;1544290;92;21096;-70
2021/12/08 09:20:14;;;;;;;8.05;4.37;;;;;;;14.39;62.39;100204.23;1507694;94;21601;-71
2021/12/08 09:22:55;;;;;;;5.55;4.47;;;;;;;14.36;62.44;100194.38;1441839;98;21106;-71
2021/12/08 09:25:25;;;;;;;5.50;4.78;;;;;;;14.34;62.55;100194.91;1432683;99;21633;-71
2021/12/08 09:27:54;;;;;;;5.70;4.92;;;;;;;14.35;62.70;100191.36;1400662;102;21173;-71
2021/12/08 09:30:33;;;;;;;7.10;5.40;;;;;;;14.37;62.48;100194.30;1398003;102;21126;-70
2021/12/08 09:33:02;;;;;;;6.08;4.72;;;;;;;14.36;62.08;100189.97;1394932;102;21107;-71
2021/12/08 09:35:43;;;;;;;5.53;4.45;;;;;;;14.36;61.61;100188.66;1379712;103;21189;-71
2021/12/08 09:38:15;;;;;;;5.87;4.87;;;;;;;14.29;61.24;100189.87;1355885;103;21151;-70
2021/12/08 09:40:53;;;;;;;6.90;4.47;;;;;;;14.19;61.32;100189.02;1326226;107;21189;-71
2021/12/08 09:51:54;;;;;;;6.55;4.75;;;;;;;13.88;61.24;100188.23;1209217;116;21261;-70
2021/12/08 09:54:21;;;;;;;5.08;4.17;;;;;;;13.68;61.73;100187.78;1217772;117;21285;-70
2021/12/08 09:56:49;;;;;;;7.55;5.00;;;;;;;13.62;62.16;100189.35;1216962;117;21202;-70
2021/12/08 09:59:16;;;;;;;10.18;4.92;;;;;;;13.60;62.38;100189.05;1253389;112;21188;-70
2021/12/08 10:01:43;;;;;;;7.65;4.75;;;;;;;13.65;62.51;100181.84;1254499;113;21217;-71
2021/12/08 10:04:12;;;;;;;7.50;4.75;;;;;;;13.72;62.37;100187.21;1236101;114;21222;-71
2021/12/08 10:06:40;;;;;;;6.53;4.70;;;;;;;13.78;62.24;100183.02;1311203;109;21672;-71
2021/12/08 10:09:07;;;;;;;5.45;4.80;;;;;;;13.81;61.92;100192.02;1311787;109;21168;-70
2021/12/08 10:11:34;;;;;;;6.03;4.30;;;;;;;13.80;61.78;100187.72;1305695;109;21226;-69
2021/12/08 10:14:02;;;;;;;7.65;4.50;;;;;;;13.81;61.84;100186.80;1274894;109;21216;-68
2021/12/08 10:16:28;;;;;;;7.62;4.65;;;;;;;13.84;61.82;100186.67;1269844;111;21316;-69
2021/12/08 10:18:56;;;;;;;8.10;5.37;;;;;;;13.85;61.57;100191.83;1280567;108;21646;-69
2021/12/08 10:21:33;;;;;;;6.37;5.70;;;;;;;13.84;61.50;100187.53;1322986;108;21175;-70
2021/12/08 10:23:59;;;;;;;7.25;6.55;;;;;;;13.85;61.41;100184.43;1290959;109;21180;-69
2021/12/08 10:26:26;;;;;;;8.33;7.22;;;;;;;13.82;61.22;100179.36;1332645;105;21145;-69
2021/12/08 10:28:55;;;;;;;10.32;7.30;;;;;;;13.78;61.21;100181.72;1354445;104;21212;-70
2021/12/08 10:31:30;;;;;;;5.58;5.00;;;;;;;13.74;61.20;100184.07;1348948;105;21197;-70
2021/12/08 10:37:04;;;;;;;7.40;4.97;;;;;;;13.68;61.29;100180.42;1349708;105;21176;-70
2021/12/08 10:39:34;;;;;;;4.85;3.80;;;;;;;13.64;61.32;100178.86;1360987;103;21721;-70
2021/12/08 10:42:22;;;;;;;6.00;3.40;;;;;;;13.58;61.25;100180.42;1388832;102;21148;-70
2021/12/08 10:45:11;;;;;;;6.53;3.77;;;;;;;13.54;61.40;100180.17;1451045;97;21164;-70
2021/12/08 10:47:51;;;;;;;5.42;3.90;;;;;;;13.49;61.44;100177.75;1593672;88;21098;-70
2021/12/08 10:56:04;;;;;;;4.78;3.17;;;;;;;13.38;61.71;100184.31;1614293;88;21043;-69
2021/12/08 10:58:34;;;;;;;5.35;3.22;;;;;;;13.37;61.67;100182.64;1615003;89;21082;-70
2021/12/08 11:01:16;;;;;;;4.20;3.12;;;;;;;13.36;61.79;100184.84;1647451;83;21026;-69
2021/12/08 11:03:43;;;;;;;6.97;3.27;;;;;;;13.37;61.73;100185.25;1713868;83;21030;-70
2021/12/08 11:06:13;;;;;;;5.90;3.47;;;;;;;13.35;61.70;100183.16;1716094;82;21547;-69
2021/12/08 11:08:44;;;;;;;4.97;3.83;;;;;;;13.30;61.73;100185.10;1718318;82;21036;-70
2021/12/08 11:11:24;;;;;;;4.40;3.92;;;;;;;13.25;61.78;100180.54;1640694;87;21104;-70
2021/12/08 11:13:56;;;;;;;5.20;3.77;;;;;;;13.22;61.87;100188.48;1639137;86;21563;-70
2021/12/08 11:16:32;;;;;;;5.97;3.75;;;;;;;13.18;62.03;100187.78;1637596;87;21055;-69
2021/12/08 11:19:08;;;;;;;6.28;3.60;;;;;;;13.15;62.07;100182.66;1642166;86;21079;-70
2021/12/08 11:21:38;;;;;;;4.87;3.15;;;;;;;13.12;62.17;100180.19;1626761;87;21088;-69
2021/12/08 11:24:11;;;;;;;;;;;;;;;13.08;62.21;100190.83;1623503;88;21114;-70
2021/12/08 11:26:38;;;;;;;6.03;3.65;;;;;;;13.03;62.32;100186.60;1604676;88;20119;-69
2021/12/08 11:29:11;;;;;;;4.42;3.50;;;;;;;12.99;62.44;100182.42;1610938;88;21090;-69
2021/12/08 11:31:59;;;;;;;4.87;3.55;;;;;;;13.00;62.51;100188.02;1612952;88;21593;-70
2021/12/08 11:34:41;;;;;;;6.58;4.15;;;;;;;13.03;62.38;100191.83;1546778;91;21108;-69
2021/12/08 11:37:13;;;;;;;6.72;4.10;;;;;;;13.01;62.32;100196.27;1499827;94;21093;-70
2021/12/08 11:39:52;;;;;;;4.70;3.75;;;;;;;12.97;62.27;100193.83;1493031;94;21134;-70
2021/12/08 11:42:21;;;;;;;3.92;3.47;;;;;;;12.90;62.41;100198.45;1487805;94;21150;-68
2021/12/08 11:44:51;;;;;;;3.92;3.20;;;;;;;12.87;62.58;100205.56;1496228;94;21652;-70
2021/12/08 11:47:25;;;;;;;5.03;3.47;;;;;;;12.81;62.75;100191.45;1497659;94;21127;-70
2021/12/08 11:49:55;;;;;;;5.78;3.30;;;;;;;12.82;63.11;100201.82;1496248;94;21214;-69
2021/12/08 11:52:29;;;;;;;6.00;3.22;;;;;;;12.86;63.09;100196.01;1494048;95;21109;-70
2021/12/08 11:55:00;;;;;;;3.55;3.25;;;;;;;12.90;63.24;100195.83;1490637;94;21279;-70
2021/12/08 11:57:42;;;;;;;5.28;3.17;;;;;;;12.94;63.11;100194.80;1442949;98;21109;-69
2021/12/08 12:00:14;;;;;;;4.07;3.13;;;;;;;12.99;62.91;100195.48;1447263;97;21076;-69
2021/12/08 12:02:59;;;;;;;3.92;3.35;;;;;;;12.99;62.86;100205.06;1449750;96;21152;-70
2021/12/08 12:05:45;;;;;;;4.80;3.15;;;;;;;12.99;62.97;100208.53;1439110;98;21125;-69
2021/12/08 12:08:20;;;;;;;5.10;3.70;;;;;;;12.99;62.91;100207.67;1441098;97;21194;-70
2021/12/08 12:10:51;;;;;;;4.30;3.55;;;;;;;12.97;62.98;100205.14;1436156;98;21164;-69
2021/12/08 12:13:17;;;;;;;5.10;4.05;;;;;;;12.97;62.88;100214.72;1427038;98;21177;-69
2021/12/08 12:15:48;;;;;;;5.75;3.98;;;;;;;12.94;63.20;100220.09;1430132;98;21647;-69
2021/12/08 12:18:20;;;;;;;6.10;4.35;;;;;;;12.94;63.26;100215.69;1442021;98;21103;-69
2021/12/08 12:20:57;;;;;;;5.65;3.87;;;;;;;12.94;63.35;100221.39;1428623;99;21081;-70
2021/12/08 12:24:12;;;;;;;4.22;2.87;;;;;;;12.94;63.20;100222.22;1421879;99;21641;-69
2021/12/08 12:27:28;;;;;;;4.85;3.20;;;;;;;12.93;63.28;100226.20;1413287;99;21134;-70
2021/12/08 12:30:21;;;;;;;4.12;2.98;;;;;;;12.93;63.34;100226.20;1419809;99;21614;-70
2021/12/08 12:32:51;;;;;;;6.03;3.42;;;;;;;12.91;63.10;100229.33;1437393;96;21171;-70
2021/12/08 12:35:23;;;;;;;4.45;3.08;;;;;;;12.83;63.36;100233.56;1493272;95;21678;-70
2021/12/08 12:38:01;;;;;;;3.92;3.40;;;;;;;12.82;63.51;100237.06;1448079;98;21089;-70
2021/12/08 12:40:40;;;;;;;4.22;3.00;;;;;;;12.83;63.55;100237.48;1419331;100;21174;-70